sensor_id;sensor_type;location;lat;lon;timestamp;P1;durP1;ratioP1;P2;durP2;ratioP2
22205;SDS011;11272;50.104;8.754;2024-03-06T00:02:05;24.30;;;10.17;;
22205;SDS011;11272;50.104;8.754;2024-03-06T00:04:31;19.53;;;10.30;;
22205;SDS011;11272;50.104;8.754;2024-03-06T00:06:58;19.00;;;10.77;;
22205;SDS011;11272;50.104;8.754;2024-03-06T00:09:24;19.77;;;10.83;;
22205;SDS011;11272;50.104;8.754;2024-03-06T00:11:52;18.17;;;10.20;;
22205;SDS011;11272;50.104;8.754;2024-03-06T00:14:18;18.57;;;9.57;;
22205;SDS011;11272;50.104;8.754;2024-03-06T00:16:45;19.53;;;9.80;;
22205;SDS011;11272;50.104;8.754;2024-03-06T00:19:10;18.80;;;10.10;;
22205;SDS011;11272;50.104;8.754;2024-03-06T00:21:36;17.47;;;9.20;;
22205;SDS011;11272;50.104;8.754;2024-03-06T00:24:04;17.77;;;9.57;;
22205;SDS011;11272;50.104;8.754;2024-03-06T00:26:30;18.97;;;9.67;;
22205;SDS011;11272;50.104;8.754;2024-03-06T00:28:56;15.40;;;9.13;;
22205;SDS011;11272;50.104;8.754;2024-03-06T00:31:21;19.70;;;9.27;;
22205;SDS011;11272;50.104;8.754;2024-03-06T00:33:47;17.97;;;9.73;;
22205;SDS011;11272;50.104;8.754;2024-03-06T00:36:13;20.13;;;9.83;;
22205;SDS011;11272;50.104;8.754;2024-03-06T00:38:38;18.23;;;9.93;;
22205;SDS011;11272;50.104;8.754;2024-03-06T00:41:04;19.70;;;10.17;;
22205;SDS011;11272;50.104;8.754;2024-03-06T00:43:30;18.73;;;9.73;;
22205;SDS011;11272;50.104;8.754;2024-03-06T00:45:55;16.93;;;9.90;;
22205;SDS011;11272;50.104;8.754;2024-03-06T00:48:21;17.37;;;9.67;;
22205;SDS011;11272;50.104;8.754;2024-03-06T00:50:46;18.53;;;10.60;;
22205;SDS011;11272;50.104;8.754;2024-03-06T00:53:12;20.57;;;10.33;;
22205;SDS011;11272;50.104;8.754;2024-03-06T00:55:37;17.93;;;10.83;;
22205;SDS011;11272;50.104;8.754;2024-03-06T00:58:03;18.10;;;9.90;;
22205;SDS011;11272;50.104;8.754;2024-03-06T01:00:29;17.10;;;9.17;;
22205;SDS011;11272;50.104;8.754;2024-03-06T01:02:58;14.90;;;8.80;;
22205;SDS011;11272;50.104;8.754;2024-03-06T01:05:24;21.90;;;9.40;;
22205;SDS011;11272;50.104;8.754;2024-03-06T01:07:49;15.00;;;9.00;;
22205;SDS011;11272;50.104;8.754;2024-03-06T01:10:15;16.17;;;9.33;;
22205;SDS011;11272;50.104;8.754;2024-03-06T01:12:40;14.83;;;9.03;;
22205;SDS011;11272;50.104;8.754;2024-03-06T01:15:06;16.93;;;9.10;;
22205;SDS011;11272;50.104;8.754;2024-03-06T01:17:33;15.63;;;8.83;;
22205;SDS011;11272;50.104;8.754;2024-03-06T01:19:58;15.30;;;8.90;;
22205;SDS011;11272;50.104;8.754;2024-03-06T01:22:25;14.40;;;8.53;;
22205;SDS011;11272;50.104;8.754;2024-03-06T01:24:50;14.43;;;8.10;;
22205;SDS011;11272;50.104;8.754;2024-03-06T01:27:16;16.03;;;8.40;;
22205;SDS011;11272;50.104;8.754;2024-03-06T01:29:42;14.10;;;8.67;;
22205;SDS011;11272;50.104;8.754;2024-03-06T01:32:08;16.70;;;9.23;;
22205;SDS011;11272;50.104;8.754;2024-03-06T01:34:35;18.30;;;9.10;;
22205;SDS011;11272;50.104;8.754;2024-03-06T01:37:01;15.63;;;9.03;;
22205;SDS011;11272;50.104;8.754;2024-03-06T01:39:26;16.77;;;8.23;;
22205;SDS011;11272;50.104;8.754;2024-03-06T01:41:52;14.47;;;8.70;;
22205;SDS011;11272;50.104;8.754;2024-03-06T01:44:18;13.73;;;8.13;;
22205;SDS011;11272;50.104;8.754;2024-03-06T01:46:44;16.83;;;8.60;;
22205;SDS011;11272;50.104;8.754;2024-03-06T01:49:11;18.10;;;8.93;;
22205;SDS011;11272;50.104;8.754;2024-03-06T01:51:39;17.03;;;8.97;;
22205;SDS011;11272;50.104;8.754;2024-03-06T01:54:06;16.17;;;9.30;;
22205;SDS011;11272;50.104;8.754;2024-03-06T01:56:33;15.13;;;8.57;;
22205;SDS011;11272;50.104;8.754;2024-03-06T01:59:00;15.93;;;8.40;;
22205;SDS011;11272;50.104;8.754;2024-03-06T02:01:27;17.00;;;8.67;;
22205;SDS011;11272;50.104;8.754;2024-03-06T02:03:53;15.03;;;8.30;;
22205;SDS011;11272;50.104;8.754;2024-03-06T02:06:19;21.30;;;8.93;;
22205;SDS011;11272;50.104;8.754;2024-03-06T02:08:45;16.53;;;9.27;;
22205;SDS011;11272;50.104;8.754;2024-03-06T02:11:11;14.53;;;8.47;;
22205;SDS011;11272;50.104;8.754;2024-03-06T02:13:38;17.03;;;8.90;;
22205;SDS011;11272;50.104;8.754;2024-03-06T02:16:04;14.77;;;8.30;;
22205;SDS011;11272;50.104;8.754;2024-03-06T02:18:32;17.07;;;8.47;;
22205;SDS011;11272;50.104;8.754;2024-03-06T02:20:57;17.57;;;8.93;;
22205;SDS011;11272;50.104;8.754;2024-03-06T02:23:25;17.73;;;9.17;;
22205;SDS011;11272;50.104;8.754;2024-03-06T02:25:51;17.60;;;8.63;;
22205;SDS011;11272;50.104;8.754;2024-03-06T02:28:16;15.63;;;9.17;;
22205;SDS011;11272;50.104;8.754;2024-03-06T02:30:43;17.73;;;9.37;;
22205;SDS011;11272;50.104;8.754;2024-03-06T02:33:09;15.50;;;9.37;;
22205;SDS011;11272;50.104;8.754;2024-03-06T02:35:35;18.07;;;9.83;;
22205;SDS011;11272;50.104;8.754;2024-03-06T02:38:01;15.57;;;8.93;;
22205;SDS011;11272;50.104;8.754;2024-03-06T02:40:30;14.53;;;8.33;;
22205;SDS011;11272;50.104;8.754;2024-03-06T02:42:56;20.27;;;9.50;;
22205;SDS011;11272;50.104;8.754;2024-03-06T02:45:21;21.33;;;10.10;;
22205;SDS011;11272;50.104;8.754;2024-03-06T02:47:47;19.23;;;9.63;;
22205;SDS011;11272;50.104;8.754;2024-03-06T02:50:13;19.33;;;10.57;;
22205;SDS011;11272;50.104;8.754;2024-03-06T02:52:38;16.67;;;9.33;;
22205;SDS011;11272;50.104;8.754;2024-03-06T02:55:05;20.67;;;9.87;;
22205;SDS011;11272;50.104;8.754;2024-03-06T02:57:31;19.20;;;9.83;;
22205;SDS011;11272;50.104;8.754;2024-03-06T02:59:56;17.67;;;9.40;;
22205;SDS011;11272;50.104;8.754;2024-03-06T03:02:23;19.67;;;9.10;;
22205;SDS011;11272;50.104;8.754;2024-03-06T03:04:49;17.13;;;9.23;;
22205;SDS011;11272;50.104;8.754;2024-03-06T03:07:15;20.03;;;10.10;;
22205;SDS011;11272;50.104;8.754;2024-03-06T03:09:41;19.00;;;9.73;;
22205;SDS011;11272;50.104;8.754;2024-03-06T03:12:06;19.87;;;9.80;;
22205;SDS011;11272;50.104;8.754;2024-03-06T03:14:32;19.17;;;10.37;;
22205;SDS011;11272;50.104;8.754;2024-03-06T03:16:59;18.77;;;10.20;;
22205;SDS011;11272;50.104;8.754;2024-03-06T03:19:26;22.47;;;9.87;;
22205;SDS011;11272;50.104;8.754;2024-03-06T03:21:51;20.33;;;10.23;;
22205;SDS011;11272;50.104;8.754;2024-03-06T03:24:17;19.57;;;10.23;;
22205;SDS011;11272;50.104;8.754;2024-03-06T03:26:45;19.07;;;9.87;;
22205;SDS011;11272;50.104;8.754;2024-03-06T03:29:10;16.63;;;9.53;;
22205;SDS011;11272;50.104;8.754;2024-03-06T03:31:36;20.53;;;9.77;;
22205;SDS011;11272;50.104;8.754;2024-03-06T03:34:04;23.93;;;9.93;;
22205;SDS011;11272;50.104;8.754;2024-03-06T03:36:31;16.63;;;9.93;;
22205;SDS011;11272;50.104;8.754;2024-03-06T03:38:56;18.77;;;9.97;;
22205;SDS011;11272;50.104;8.754;2024-03-06T03:41:22;17.57;;;9.93;;
22205;SDS011;11272;50.104;8.754;2024-03-06T03:43:47;20.60;;;9.90;;
22205;SDS011;11272;50.104;8.754;2024-03-06T03:46:14;20.83;;;10.13;;
22205;SDS011;11272;50.104;8.754;2024-03-06T03:48:39;19.80;;;10.07;;
22205;SDS011;11272;50.104;8.754;2024-03-06T03:51:05;24.37;;;9.93;;
22205;SDS011;11272;50.104;8.754;2024-03-06T03:53:32;19.47;;;10.47;;
22205;SDS011;11272;50.104;8.754;2024-03-06T03:55:58;18.83;;;10.10;;
22205;SDS011;11272;50.104;8.754;2024-03-06T03:58:25;18.30;;;9.73;;
22205;SDS011;11272;50.104;8.754;2024-03-06T04:00:50;23.73;;;10.83;;
22205;SDS011;11272;50.104;8.754;2024-03-06T04:06:02;23.90;;;11.20;;
22205;SDS011;11272;50.104;8.754;2024-03-06T04:08:28;22.80;;;10.50;;
22205;SDS011;11272;50.104;8.754;2024-03-06T04:10:53;19.63;;;11.20;;
22205;SDS011;11272;50.104;8.754;2024-03-06T04:13:19;22.97;;;10.20;;
22205;SDS011;11272;50.104;8.754;2024-03-06T04:15:45;23.03;;;10.20;;
22205;SDS011;11272;50.104;8.754;2024-03-06T04:18:11;20.37;;;10.90;;
22205;SDS011;11272;50.104;8.754;2024-03-06T04:20:36;23.07;;;10.73;;
22205;SDS011;11272;50.104;8.754;2024-03-06T04:23:02;27.10;;;11.17;;
22205;SDS011;11272;50.104;8.754;2024-03-06T04:25:28;23.40;;;11.33;;
22205;SDS011;11272;50.104;8.754;2024-03-06T04:27:53;21.43;;;10.63;;
22205;SDS011;11272;50.104;8.754;2024-03-06T04:30:19;24.37;;;11.83;;
22205;SDS011;11272;50.104;8.754;2024-03-06T04:32:44;21.80;;;10.80;;
22205;SDS011;11272;50.104;8.754;2024-03-06T04:35:10;21.33;;;11.83;;
22205;SDS011;11272;50.104;8.754;2024-03-06T04:37:36;18.73;;;11.43;;
22205;SDS011;11272;50.104;8.754;2024-03-06T04:40:02;24.67;;;12.63;;
22205;SDS011;11272;50.104;8.754;2024-03-06T04:42:35;20.07;;;11.97;;
22205;SDS011;11272;50.104;8.754;2024-03-06T04:45:02;22.37;;;11.20;;
22205;SDS011;11272;50.104;8.754;2024-03-06T04:47:38;21.10;;;11.20;;
22205;SDS011;11272;50.104;8.754;2024-03-06T04:50:09;23.97;;;12.20;;
22205;SDS011;11272;50.104;8.754;2024-03-06T04:52:36;27.33;;;13.47;;
22205;SDS011;11272;50.104;8.754;2024-03-06T04:55:02;23.70;;;12.07;;
22205;SDS011;11272;50.104;8.754;2024-03-06T04:57:28;21.77;;;12.30;;
22205;SDS011;11272;50.104;8.754;2024-03-06T04:59:54;24.47;;;12.93;;
22205;SDS011;11272;50.104;8.754;2024-03-06T05:02:19;23.57;;;12.40;;
22205;SDS011;11272;50.104;8.754;2024-03-06T05:04:45;22.13;;;11.87;;
22205;SDS011;11272;50.104;8.754;2024-03-06T05:07:12;21.43;;;12.10;;
22205;SDS011;11272;50.104;8.754;2024-03-06T05:09:38;25.90;;;13.57;;
22205;SDS011;11272;50.104;8.754;2024-03-06T05:12:06;24.43;;;13.30;;
22205;SDS011;11272;50.104;8.754;2024-03-06T05:14:32;25.47;;;12.90;;
22205;SDS011;11272;50.104;8.754;2024-03-06T05:16:58;28.53;;;13.20;;
22205;SDS011;11272;50.104;8.754;2024-03-06T05:19:23;24.03;;;12.90;;
22205;SDS011;11272;50.104;8.754;2024-03-06T05:21:57;27.27;;;13.10;;
22205;SDS011;11272;50.104;8.754;2024-03-06T05:24:23;27.57;;;15.03;;
22205;SDS011;11272;50.104;8.754;2024-03-06T05:26:49;28.83;;;13.90;;
22205;SDS011;11272;50.104;8.754;2024-03-06T05:29:14;28.87;;;14.33;;
22205;SDS011;11272;50.104;8.754;2024-03-06T05:31:40;28.37;;;14.40;;
22205;SDS011;11272;50.104;8.754;2024-03-06T05:34:06;32.80;;;14.83;;
22205;SDS011;11272;50.104;8.754;2024-03-06T05:36:31;29.50;;;13.77;;
22205;SDS011;11272;50.104;8.754;2024-03-06T05:38:57;26.13;;;14.40;;
22205;SDS011;11272;50.104;8.754;2024-03-06T05:41:22;29.83;;;14.10;;
22205;SDS011;11272;50.104;8.754;2024-03-06T05:43:48;28.93;;;14.13;;
22205;SDS011;11272;50.104;8.754;2024-03-06T05:46:13;35.90;;;19.43;;
22205;SDS011;11272;50.104;8.754;2024-03-06T05:48:41;32.60;;;15.90;;
22205;SDS011;11272;50.104;8.754;2024-03-06T05:51:06;30.43;;;15.80;;
22205;SDS011;11272;50.104;8.754;2024-03-06T05:53:39;27.17;;;14.80;;
22205;SDS011;11272;50.104;8.754;2024-03-06T05:56:07;27.17;;;14.60;;
22205;SDS011;11272;50.104;8.754;2024-03-06T05:58:33;28.37;;;14.73;;
22205;SDS011;11272;50.104;8.754;2024-03-06T06:01:00;27.93;;;14.33;;
22205;SDS011;11272;50.104;8.754;2024-03-06T06:03:29;27.07;;;14.37;;
22205;SDS011;11272;50.104;8.754;2024-03-06T06:05:56;28.53;;;14.30;;
22205;SDS011;11272;50.104;8.754;2024-03-06T06:08:22;27.37;;;14.53;;
22205;SDS011;11272;50.104;8.754;2024-03-06T06:10:47;27.57;;;15.00;;
22205;SDS011;11272;50.104;8.754;2024-03-06T06:13:13;32.73;;;15.17;;
22205;SDS011;11272;50.104;8.754;2024-03-06T06:15:40;27.77;;;14.23;;
22205;SDS011;11272;50.104;8.754;2024-03-06T06:18:06;27.77;;;14.77;;
22205;SDS011;11272;50.104;8.754;2024-03-06T06:20:31;28.60;;;14.57;;
22205;SDS011;11272;50.104;8.754;2024-03-06T06:22:57;24.90;;;13.70;;
22205;SDS011;11272;50.104;8.754;2024-03-06T06:25:22;30.27;;;14.20;;
22205;SDS011;11272;50.104;8.754;2024-03-06T06:27:48;29.97;;;14.57;;
22205;SDS011;11272;50.104;8.754;2024-03-06T06:30:15;29.07;;;15.23;;
22205;SDS011;11272;50.104;8.754;2024-03-06T06:32:43;27.33;;;15.90;;
22205;SDS011;11272;50.104;8.754;2024-03-06T06:35:09;31.00;;;15.43;;
22205;SDS011;11272;50.104;8.754;2024-03-06T06:37:36;33.27;;;16.43;;
22205;SDS011;11272;50.104;8.754;2024-03-06T06:40:02;28.87;;;15.73;;
22205;SDS011;11272;50.104;8.754;2024-03-06T06:42:32;28.33;;;15.33;;
22205;SDS011;11272;50.104;8.754;2024-03-06T06:44:58;28.10;;;16.17;;
22205;SDS011;11272;50.104;8.754;2024-03-06T06:47:24;35.00;;;17.33;;
22205;SDS011;11272;50.104;8.754;2024-03-06T06:49:50;30.23;;;16.57;;
22205;SDS011;11272;50.104;8.754;2024-03-06T06:52:16;23.30;;;14.30;;
22205;SDS011;11272;50.104;8.754;2024-03-06T06:54:42;27.93;;;14.40;;
22205;SDS011;11272;50.104;8.754;2024-03-06T06:57:08;24.00;;;14.80;;
22205;SDS011;11272;50.104;8.754;2024-03-06T06:59:33;28.53;;;14.50;;
22205;SDS011;11272;50.104;8.754;2024-03-06T07:02:00;28.77;;;14.17;;
22205;SDS011;11272;50.104;8.754;2024-03-06T07:04:26;25.73;;;14.07;;
22205;SDS011;11272;50.104;8.754;2024-03-06T07:06:51;24.50;;;13.67;;
22205;SDS011;11272;50.104;8.754;2024-03-06T07:09:17;25.47;;;13.67;;
22205;SDS011;11272;50.104;8.754;2024-03-06T07:11:43;24.87;;;14.00;;
22205;SDS011;11272;50.104;8.754;2024-03-06T07:14:10;28.93;;;14.60;;
22205;SDS011;11272;50.104;8.754;2024-03-06T07:16:44;27.37;;;15.17;;
22205;SDS011;11272;50.104;8.754;2024-03-06T07:19:10;28.00;;;14.73;;
22205;SDS011;11272;50.104;8.754;2024-03-06T07:21:36;24.80;;;13.60;;
22205;SDS011;11272;50.104;8.754;2024-03-06T07:24:03;25.80;;;13.40;;
22205;SDS011;11272;50.104;8.754;2024-03-06T07:26:29;31.87;;;15.73;;
22205;SDS011;11272;50.104;8.754;2024-03-06T07:28:58;29.77;;;14.40;;
22205;SDS011;11272;50.104;8.754;2024-03-06T07:31:24;24.30;;;13.33;;
22205;SDS011;11272;50.104;8.754;2024-03-06T07:33:50;22.10;;;12.90;;
22205;SDS011;11272;50.104;8.754;2024-03-06T07:36:16;26.60;;;12.20;;
22205;SDS011;11272;50.104;8.754;2024-03-06T07:38:42;22.10;;;12.30;;
22205;SDS011;11272;50.104;8.754;2024-03-06T07:41:07;24.90;;;12.63;;
22205;SDS011;11272;50.104;8.754;2024-03-06T07:43:33;19.47;;;11.63;;
22205;SDS011;11272;50.104;8.754;2024-03-06T07:45:58;28.73;;;12.50;;
22205;SDS011;11272;50.104;8.754;2024-03-06T07:48:24;25.93;;;12.60;;
22205;SDS011;11272;50.104;8.754;2024-03-06T07:50:50;21.57;;;12.13;;
22205;SDS011;11272;50.104;8.754;2024-03-06T07:53:15;21.70;;;12.80;;
22205;SDS011;11272;50.104;8.754;2024-03-06T07:55:41;26.37;;;13.57;;
22205;SDS011;11272;50.104;8.754;2024-03-06T07:58:07;21.80;;;12.77;;
22205;SDS011;11272;50.104;8.754;2024-03-06T08:00:36;24.27;;;12.63;;
22205;SDS011;11272;50.104;8.754;2024-03-06T08:03:01;24.87;;;13.33;;
22205;SDS011;11272;50.104;8.754;2024-03-06T08:05:28;23.97;;;12.83;;
22205;SDS011;11272;50.104;8.754;2024-03-06T08:07:53;27.97;;;14.53;;
22205;SDS011;11272;50.104;8.754;2024-03-06T08:10:19;30.13;;;14.93;;
22205;SDS011;11272;50.104;8.754;2024-03-06T08:12:45;26.90;;;14.10;;
22205;SDS011;11272;50.104;8.754;2024-03-06T08:15:13;29.30;;;14.47;;
22205;SDS011;11272;50.104;8.754;2024-03-06T08:17:40;28.60;;;14.17;;
22205;SDS011;11272;50.104;8.754;2024-03-06T08:20:10;29.60;;;16.03;;
22205;SDS011;11272;50.104;8.754;2024-03-06T08:22:40;23.67;;;14.00;;
22205;SDS011;11272;50.104;8.754;2024-03-06T08:25:10;23.00;;;13.27;;
22205;SDS011;11272;50.104;8.754;2024-03-06T08:27:38;27.87;;;14.40;;
22205;SDS011;11272;50.104;8.754;2024-03-06T08:30:05;25.70;;;14.20;;
22205;SDS011;11272;50.104;8.754;2024-03-06T08:32:32;26.47;;;13.67;;
22205;SDS011;11272;50.104;8.754;2024-03-06T08:35:02;26.40;;;14.30;;
22205;SDS011;11272;50.104;8.754;2024-03-06T08:37:28;24.03;;;13.67;;
22205;SDS011;11272;50.104;8.754;2024-03-06T08:39:54;29.87;;;14.77;;
22205;SDS011;11272;50.104;8.754;2024-03-06T08:42:19;25.20;;;13.63;;
22205;SDS011;11272;50.104;8.754;2024-03-06T08:44:45;24.90;;;13.47;;
22205;SDS011;11272;50.104;8.754;2024-03-06T08:47:11;25.83;;;13.50;;
22205;SDS011;11272;50.104;8.754;2024-03-06T08:49:37;27.93;;;14.27;;
22205;SDS011;11272;50.104;8.754;2024-03-06T08:52:03;30.73;;;14.33;;
22205;SDS011;11272;50.104;8.754;2024-03-06T08:54:28;29.27;;;14.03;;
22205;SDS011;11272;50.104;8.754;2024-03-06T08:56:56;34.23;;;14.73;;
22205;SDS011;11272;50.104;8.754;2024-03-06T08:59:23;26.00;;;14.43;;
22205;SDS011;11272;50.104;8.754;2024-03-06T09:01:51;25.00;;;13.93;;
22205;SDS011;11272;50.104;8.754;2024-03-06T09:04:19;25.10;;;14.20;;
22205;SDS011;11272;50.104;8.754;2024-03-06T09:06:45;31.13;;;14.57;;
22205;SDS011;11272;50.104;8.754;2024-03-06T09:09:10;24.47;;;13.70;;
22205;SDS011;11272;50.104;8.754;2024-03-06T09:11:39;34.27;;;14.60;;
22205;SDS011;11272;50.104;8.754;2024-03-06T09:16:54;28.43;;;14.03;;
22205;SDS011;11272;50.104;8.754;2024-03-06T09:25:24;30.10;;;14.87;;
22205;SDS011;11272;50.104;8.754;2024-03-06T09:27:49;28.63;;;14.10;;
22205;SDS011;11272;50.104;8.754;2024-03-06T09:30:15;33.53;;;14.70;;
22205;SDS011;11272;50.104;8.754;2024-03-06T09:32:41;29.13;;;14.03;;
22205;SDS011;11272;50.104;8.754;2024-03-06T09:35:07;30.80;;;15.33;;
22205;SDS011;11272;50.104;8.754;2024-03-06T09:37:34;31.27;;;14.70;;
22205;SDS011;11272;50.104;8.754;2024-03-06T09:39:59;33.60;;;15.33;;
22205;SDS011;11272;50.104;8.754;2024-03-06T09:42:25;30.00;;;14.83;;
22205;SDS011;11272;50.104;8.754;2024-03-06T09:44:51;29.90;;;14.87;;
22205;SDS011;11272;50.104;8.754;2024-03-06T09:47:18;29.30;;;15.50;;
22205;SDS011;11272;50.104;8.754;2024-03-06T09:49:52;33.50;;;15.20;;
22205;SDS011;11272;50.104;8.754;2024-03-06T09:52:21;35.80;;;15.47;;
22205;SDS011;11272;50.104;8.754;2024-03-06T09:54:49;30.40;;;16.03;;
22205;SDS011;11272;50.104;8.754;2024-03-06T09:57:17;29.10;;;15.00;;
22205;SDS011;11272;50.104;8.754;2024-03-06T09:59:42;30.33;;;15.03;;
22205;SDS011;11272;50.104;8.754;2024-03-06T10:02:16;30.03;;;15.57;;
22205;SDS011;11272;50.104;8.754;2024-03-06T10:04:54;27.97;;;14.83;;
22205;SDS011;11272;50.104;8.754;2024-03-06T10:07:23;30.07;;;14.43;;
22205;SDS011;11272;50.104;8.754;2024-03-06T10:09:55;30.13;;;14.63;;
22205;SDS011;11272;50.104;8.754;2024-03-06T10:12:22;32.93;;;16.10;;
22205;SDS011;11272;50.104;8.754;2024-03-06T10:14:51;31.87;;;15.07;;
22205;SDS011;11272;50.104;8.754;2024-03-06T10:17:21;33.63;;;16.07;;
22205;SDS011;11272;50.104;8.754;2024-03-06T10:19:52;32.40;;;15.10;;
22205;SDS011;11272;50.104;8.754;2024-03-06T10:22:21;31.00;;;14.70;;
22205;SDS011;11272;50.104;8.754;2024-03-06T10:24:49;28.60;;;14.17;;
22205;SDS011;11272;50.104;8.754;2024-03-06T10:27:37;30.47;;;14.43;;
22205;SDS011;11272;50.104;8.754;2024-03-06T10:30:06;27.20;;;14.63;;
22205;SDS011;11272;50.104;8.754;2024-03-06T10:32:42;27.60;;;14.47;;
22205;SDS011;11272;50.104;8.754;2024-03-06T10:35:17;27.70;;;14.20;;
22205;SDS011;11272;50.104;8.754;2024-03-06T10:37:44;25.67;;;14.17;;
22205;SDS011;11272;50.104;8.754;2024-03-06T10:40:11;24.93;;;14.10;;
22205;SDS011;11272;50.104;8.754;2024-03-06T10:42:40;30.70;;;14.60;;
22205;SDS011;11272;50.104;8.754;2024-03-06T10:45:07;25.13;;;14.63;;
22205;SDS011;11272;50.104;8.754;2024-03-06T10:50:25;25.27;;;14.47;;
22205;SDS011;11272;50.104;8.754;2024-03-06T10:52:53;23.90;;;14.10;;
22205;SDS011;11272;50.104;8.754;2024-03-06T10:55:20;25.27;;;13.87;;
22205;SDS011;11272;50.104;8.754;2024-03-06T11:00:46;25.67;;;14.80;;
22205;SDS011;11272;50.104;8.754;2024-03-06T11:03:15;22.93;;;13.47;;
22205;SDS011;11272;50.104;8.754;2024-03-06T11:05:42;24.80;;;13.63;;
22205;SDS011;11272;50.104;8.754;2024-03-06T11:08:11;23.40;;;12.97;;
22205;SDS011;11272;50.104;8.754;2024-03-06T11:10:38;23.60;;;13.53;;
22205;SDS011;11272;50.104;8.754;2024-03-06T11:13:09;25.97;;;13.80;;
22205;SDS011;11272;50.104;8.754;2024-03-06T11:15:46;23.30;;;12.50;;
22205;SDS011;11272;50.104;8.754;2024-03-06T11:23:28;22.90;;;13.70;;
22205;SDS011;11272;50.104;8.754;2024-03-06T11:25:55;23.37;;;13.80;;
22205;SDS011;11272;50.104;8.754;2024-03-06T11:28:30;22.90;;;13.70;;
22205;SDS011;11272;50.104;8.754;2024-03-06T11:31:04;23.60;;;14.10;;
22205;SDS011;11272;50.104;8.754;2024-03-06T11:33:35;22.37;;;13.80;;
22205;SDS011;11272;50.104;8.754;2024-03-06T11:36:18;24.90;;;13.60;;
22205;SDS011;11272;50.104;8.754;2024-03-06T11:38:58;25.13;;;13.70;;
22205;SDS011;11272;50.104;8.754;2024-03-06T11:41:26;23.27;;;13.50;;
22205;SDS011;11272;50.104;8.754;2024-03-06T11:43:53;23.67;;;12.87;;
22205;SDS011;11272;50.104;8.754;2024-03-06T11:46:40;23.40;;;13.57;;
22205;SDS011;11272;50.104;8.754;2024-03-06T11:49:18;20.93;;;12.37;;
22205;SDS011;11272;50.104;8.754;2024-03-06T11:51:49;22.63;;;11.57;;
22205;SDS011;11272;50.104;8.754;2024-03-06T11:54:18;21.67;;;11.83;;
22205;SDS011;11272;50.104;8.754;2024-03-06T11:56:48;20.73;;;12.67;;
22205;SDS011;11272;50.104;8.754;2024-03-06T11:59:29;21.73;;;12.87;;
22205;SDS011;11272;50.104;8.754;2024-03-06T12:01:56;21.17;;;12.10;;
22205;SDS011;11272;50.104;8.754;2024-03-06T12:04:30;22.90;;;13.00;;
22205;SDS011;11272;50.104;8.754;2024-03-06T12:07:02;23.77;;;12.30;;
22205;SDS011;11272;50.104;8.754;2024-03-06T12:09:31;27.37;;;13.13;;
22205;SDS011;11272;50.104;8.754;2024-03-06T12:11:58;24.63;;;12.40;;
22205;SDS011;11272;50.104;8.754;2024-03-06T12:14:24;24.80;;;12.87;;
22205;SDS011;11272;50.104;8.754;2024-03-06T12:19:25;25.27;;;12.80;;
22205;SDS011;11272;50.104;8.754;2024-03-06T12:21:53;23.50;;;12.77;;
22205;SDS011;11272;50.104;8.754;2024-03-06T12:24:21;24.07;;;11.60;;
22205;SDS011;11272;50.104;8.754;2024-03-06T12:26:46;22.67;;;12.10;;
22205;SDS011;11272;50.104;8.754;2024-03-06T12:29:22;24.30;;;11.90;;
22205;SDS011;11272;50.104;8.754;2024-03-06T12:31:48;24.37;;;11.37;;
22205;SDS011;11272;50.104;8.754;2024-03-06T12:34:14;23.67;;;11.70;;
22205;SDS011;11272;50.104;8.754;2024-03-06T12:36:43;24.13;;;12.13;;
22205;SDS011;11272;50.104;8.754;2024-03-06T12:39:08;22.27;;;11.97;;
22205;SDS011;11272;50.104;8.754;2024-03-06T12:41:41;21.43;;;11.40;;
22205;SDS011;11272;50.104;8.754;2024-03-06T12:44:07;23.47;;;11.73;;
22205;SDS011;11272;50.104;8.754;2024-03-06T12:46:32;20.07;;;11.57;;
22205;SDS011;11272;50.104;8.754;2024-03-06T12:48:58;22.77;;;11.60;;
22205;SDS011;11272;50.104;8.754;2024-03-06T12:51:24;24.50;;;11.77;;
22205;SDS011;11272;50.104;8.754;2024-03-06T12:53:50;24.40;;;11.73;;
22205;SDS011;11272;50.104;8.754;2024-03-06T12:56:16;25.03;;;12.20;;
22205;SDS011;11272;50.104;8.754;2024-03-06T12:58:42;24.37;;;11.37;;
22205;SDS011;11272;50.104;8.754;2024-03-06T13:01:08;26.10;;;11.70;;
22205;SDS011;11272;50.104;8.754;2024-03-06T13:03:34;23.10;;;11.40;;
22205;SDS011;11272;50.104;8.754;2024-03-06T13:05:59;24.73;;;11.83;;
22205;SDS011;11272;50.104;8.754;2024-03-06T13:08:25;22.93;;;11.23;;
22205;SDS011;11272;50.104;8.754;2024-03-06T13:10:50;20.43;;;10.40;;
22205;SDS011;11272;50.104;8.754;2024-03-06T13:13:16;22.13;;;10.63;;
22205;SDS011;11272;50.104;8.754;2024-03-06T13:15:41;20.93;;;10.90;;
22205;SDS011;11272;50.104;8.754;2024-03-06T13:18:08;24.53;;;10.87;;
22205;SDS011;11272;50.104;8.754;2024-03-06T13:20:34;25.77;;;11.23;;
22205;SDS011;11272;50.104;8.754;2024-03-06T13:23:00;22.23;;;10.90;;
22205;SDS011;11272;50.104;8.754;2024-03-06T13:25:26;23.23;;;11.27;;
22205;SDS011;11272;50.104;8.754;2024-03-06T13:27:51;20.57;;;9.97;;
22205;SDS011;11272;50.104;8.754;2024-03-06T13:30:18;23.60;;;11.13;;
22205;SDS011;11272;50.104;8.754;2024-03-06T13:32:44;23.17;;;9.97;;
22205;SDS011;11272;50.104;8.754;2024-03-06T13:35:11;20.83;;;11.00;;
22205;SDS011;11272;50.104;8.754;2024-03-06T13:37:39;19.03;;;9.10;;
22205;SDS011;11272;50.104;8.754;2024-03-06T13:40:07;19.37;;;9.83;;
22205;SDS011;11272;50.104;8.754;2024-03-06T13:42:34;17.50;;;9.73;;
22205;SDS011;11272;50.104;8.754;2024-03-06T13:45:02;16.97;;;9.47;;
22205;SDS011;11272;50.104;8.754;2024-03-06T13:47:35;21.63;;;11.70;;
22205;SDS011;11272;50.104;8.754;2024-03-06T13:50:01;21.80;;;12.17;;
22205;SDS011;11272;50.104;8.754;2024-03-06T13:52:27;21.93;;;11.70;;
22205;SDS011;11272;50.104;8.754;2024-03-06T13:54:53;20.13;;;10.97;;
22205;SDS011;11272;50.104;8.754;2024-03-06T13:57:19;21.93;;;11.30;;
22205;SDS011;11272;50.104;8.754;2024-03-06T13:59:44;26.73;;;12.07;;
22205;SDS011;11272;50.104;8.754;2024-03-06T14:02:10;23.70;;;11.47;;
22205;SDS011;11272;50.104;8.754;2024-03-06T14:04:36;22.73;;;11.10;;
22205;SDS011;11272;50.104;8.754;2024-03-06T14:07:02;22.67;;;10.33;;
22205;SDS011;11272;50.104;8.754;2024-03-06T14:09:28;22.17;;;11.30;;
22205;SDS011;11272;50.104;8.754;2024-03-06T14:11:54;19.97;;;10.27;;
22205;SDS011;11272;50.104;8.754;2024-03-06T14:14:22;19.87;;;10.53;;
22205;SDS011;11272;50.104;8.754;2024-03-06T14:16:48;21.83;;;11.30;;
22205;SDS011;11272;50.104;8.754;2024-03-06T14:19:13;20.57;;;10.33;;
22205;SDS011;11272;50.104;8.754;2024-03-06T14:21:40;21.13;;;10.40;;
22205;SDS011;11272;50.104;8.754;2024-03-06T14:24:05;21.43;;;9.47;;
22205;SDS011;11272;50.104;8.754;2024-03-06T14:26:31;22.83;;;11.20;;
22205;SDS011;11272;50.104;8.754;2024-03-06T14:28:58;20.53;;;10.87;;
22205;SDS011;11272;50.104;8.754;2024-03-06T14:31:24;23.97;;;11.93;;
22205;SDS011;11272;50.104;8.754;2024-03-06T14:33:51;22.03;;;11.73;;
22205;SDS011;11272;50.104;8.754;2024-03-06T14:36:18;23.10;;;11.60;;
22205;SDS011;11272;50.104;8.754;2024-03-06T14:38:47;20.97;;;11.33;;
22205;SDS011;11272;50.104;8.754;2024-03-06T14:41:16;24.57;;;12.53;;
22205;SDS011;11272;50.104;8.754;2024-03-06T14:43:46;24.13;;;11.17;;
22205;SDS011;11272;50.104;8.754;2024-03-06T14:46:12;23.90;;;11.40;;
22205;SDS011;11272;50.104;8.754;2024-03-06T14:48:38;28.23;;;11.03;;